sensor_id;sensor_type;location;lat;lon;timestamp;P1;durP1;ratioP1;P2;durP2;ratioP2
59147;SDS011;44930;52.878;6.168;2024-01-30T00:01:50;26.83;;;16.30;;
59147;SDS011;44930;52.878;6.168;2024-01-30T00:04:16;20.95;;;16.27;;
59147;SDS011;44930;52.878;6.168;2024-01-30T00:06:42;22.05;;;16.15;;
59147;SDS011;44930;52.878;6.168;2024-01-30T00:09:08;23.85;;;16.95;;
59147;SDS011;44930;52.878;6.168;2024-01-30T00:11:35;22.65;;;17.25;;
59147;SDS011;44930;52.878;6.168;2024-01-30T00:14:01;18.95;;;15.98;;
59147;SDS011;44930;52.878;6.168;2024-01-30T00:16:28;22.08;;;16.08;;
59147;SDS011;44930;52.878;6.168;2024-01-30T00:18:54;23.02;;;17.40;;
59147;SDS011;44930;52.878;6.168;2024-01-30T00:21:20;23.88;;;16.85;;
59147;SDS011;44930;52.878;6.168;2024-01-30T00:23:46;20.55;;;15.60;;
59147;SDS011;44930;52.878;6.168;2024-01-30T00:26:12;22.25;;;16.17;;
59147;SDS011;44930;52.878;6.168;2024-01-30T00:28:39;23.63;;;16.33;;
59147;SDS011;44930;52.878;6.168;2024-01-30T00:31:06;23.38;;;16.55;;
59147;SDS011;44930;52.878;6.168;2024-01-30T00:33:31;21.55;;;15.63;;
59147;SDS011;44930;52.878;6.168;2024-01-30T00:35:57;24.13;;;16.73;;
59147;SDS011;44930;52.878;6.168;2024-01-30T00:38:22;23.42;;;16.25;;
59147;SDS011;44930;52.878;6.168;2024-01-30T00:40:48;24.13;;;16.42;;
59147;SDS011;44930;52.878;6.168;2024-01-30T00:43:15;23.20;;;16.23;;
59147;SDS011;44930;52.878;6.168;2024-01-30T00:45:41;24.23;;;15.18;;
59147;SDS011;44930;52.878;6.168;2024-01-30T00:48:08;21.67;;;15.45;;
59147;SDS011;44930;52.878;6.168;2024-01-30T00:50:34;20.80;;;15.15;;
59147;SDS011;44930;52.878;6.168;2024-01-30T00:52:59;21.25;;;14.68;;
59147;SDS011;44930;52.878;6.168;2024-01-30T00:55:26;22.40;;;15.60;;
59147;SDS011;44930;52.878;6.168;2024-01-30T00:57:51;24.42;;;16.45;;
59147;SDS011;44930;52.878;6.168;2024-01-30T01:00:17;24.38;;;15.45;;
59147;SDS011;44930;52.878;6.168;2024-01-30T01:02:43;20.20;;;15.43;;
59147;SDS011;44930;52.878;6.168;2024-01-30T01:05:08;18.52;;;14.95;;
59147;SDS011;44930;52.878;6.168;2024-01-30T01:07:34;21.70;;;16.05;;
59147;SDS011;44930;52.878;6.168;2024-01-30T01:10:00;18.63;;;15.18;;
59147;SDS011;44930;52.878;6.168;2024-01-30T01:12:26;22.75;;;16.45;;
59147;SDS011;44930;52.878;6.168;2024-01-30T01:14:51;21.83;;;15.77;;
59147;SDS011;44930;52.878;6.168;2024-01-30T01:17:17;24.05;;;14.95;;
59147;SDS011;44930;52.878;6.168;2024-01-30T01:19:43;24.05;;;16.05;;
59147;SDS011;44930;52.878;6.168;2024-01-30T01:22:09;23.13;;;16.45;;
59147;SDS011;44930;52.878;6.168;2024-01-30T01:24:35;21.55;;;14.93;;
59147;SDS011;44930;52.878;6.168;2024-01-30T01:27:01;21.05;;;15.98;;
59147;SDS011;44930;52.878;6.168;2024-01-30T01:29:27;19.92;;;15.60;;
59147;SDS011;44930;52.878;6.168;2024-01-30T01:31:54;19.50;;;15.02;;
59147;SDS011;44930;52.878;6.168;2024-01-30T01:34:21;21.23;;;15.60;;
59147;SDS011;44930;52.878;6.168;2024-01-30T01:36:47;22.27;;;15.65;;
59147;SDS011;44930;52.878;6.168;2024-01-30T01:39:13;17.15;;;14.30;;
59147;SDS011;44930;52.878;6.168;2024-01-30T01:41:38;23.92;;;15.63;;
59147;SDS011;44930;52.878;6.168;2024-01-30T01:44:04;19.60;;;14.88;;
59147;SDS011;44930;52.878;6.168;2024-01-30T01:46:30;22.27;;;15.75;;
59147;SDS011;44930;52.878;6.168;2024-01-30T01:48:58;24.85;;;16.25;;
59147;SDS011;44930;52.878;6.168;2024-01-30T01:51:25;27.35;;;18.25;;
59147;SDS011;44930;52.878;6.168;2024-01-30T01:53:53;20.58;;;15.57;;
59147;SDS011;44930;52.878;6.168;2024-01-30T01:56:21;21.17;;;15.25;;
59147;SDS011;44930;52.878;6.168;2024-01-30T01:58:47;23.50;;;16.42;;
59147;SDS011;44930;52.878;6.168;2024-01-30T02:01:14;21.40;;;15.60;;
59147;SDS011;44930;52.878;6.168;2024-01-30T02:03:42;20.65;;;15.70;;
59147;SDS011;44930;52.878;6.168;2024-01-30T02:06:08;21.83;;;16.30;;
59147;SDS011;44930;52.878;6.168;2024-01-30T02:08:34;20.33;;;15.07;;
59147;SDS011;44930;52.878;6.168;2024-01-30T02:11:02;21.73;;;15.70;;
59147;SDS011;44930;52.878;6.168;2024-01-30T02:13:28;20.70;;;14.70;;
59147;SDS011;44930;52.878;6.168;2024-01-30T02:15:53;22.35;;;14.95;;
59147;SDS011;44930;52.878;6.168;2024-01-30T02:18:19;22.58;;;17.23;;
59147;SDS011;44930;52.878;6.168;2024-01-30T02:20:46;22.60;;;16.27;;
59147;SDS011;44930;52.878;6.168;2024-01-30T02:23:12;22.50;;;16.08;;
59147;SDS011;44930;52.878;6.168;2024-01-30T02:25:40;20.25;;;15.43;;
59147;SDS011;44930;52.878;6.168;2024-01-30T02:28:12;20.48;;;15.95;;
59147;SDS011;44930;52.878;6.168;2024-01-30T02:30:39;21.20;;;16.10;;
59147;SDS011;44930;52.878;6.168;2024-01-30T02:33:05;20.48;;;15.13;;
59147;SDS011;44930;52.878;6.168;2024-01-30T02:35:31;25.48;;;16.90;;
59147;SDS011;44930;52.878;6.168;2024-01-30T02:37:57;23.42;;;16.85;;
59147;SDS011;44930;52.878;6.168;2024-01-30T02:40:22;22.15;;;16.63;;
59147;SDS011;44930;52.878;6.168;2024-01-30T02:42:48;25.02;;;16.10;;
59147;SDS011;44930;52.878;6.168;2024-01-30T02:45:13;22.95;;;15.98;;
59147;SDS011;44930;52.878;6.168;2024-01-30T02:47:39;23.35;;;15.43;;
59147;SDS011;44930;52.878;6.168;2024-01-30T02:50:05;25.30;;;16.17;;
59147;SDS011;44930;52.878;6.168;2024-01-30T02:52:31;21.25;;;16.27;;
59147;SDS011;44930;52.878;6.168;2024-01-30T02:54:57;24.65;;;16.98;;
59147;SDS011;44930;52.878;6.168;2024-01-30T02:57:23;21.45;;;16.73;;
59147;SDS011;44930;52.878;6.168;2024-01-30T02:59:49;26.20;;;16.05;;
59147;SDS011;44930;52.878;6.168;2024-01-30T03:02:15;22.73;;;15.98;;
59147;SDS011;44930;52.878;6.168;2024-01-30T03:04:41;23.95;;;18.00;;
59147;SDS011;44930;52.878;6.168;2024-01-30T03:07:07;21.55;;;17.02;;
59147;SDS011;44930;52.878;6.168;2024-01-30T03:09:33;22.60;;;17.23;;
59147;SDS011;44930;52.878;6.168;2024-01-30T03:11:59;20.88;;;16.73;;
59147;SDS011;44930;52.878;6.168;2024-01-30T03:14:26;24.65;;;16.92;;
59147;SDS011;44930;52.878;6.168;2024-01-30T03:16:51;22.92;;;15.63;;
59147;SDS011;44930;52.878;6.168;2024-01-30T03:19:17;22.10;;;16.73;;
59147;SDS011;44930;52.878;6.168;2024-01-30T03:21:43;23.95;;;16.85;;
59147;SDS011;44930;52.878;6.168;2024-01-30T03:24:09;24.38;;;17.02;;
59147;SDS011;44930;52.878;6.168;2024-01-30T03:26:35;23.73;;;16.85;;
59147;SDS011;44930;52.878;6.168;2024-01-30T03:29:01;24.67;;;17.10;;
59147;SDS011;44930;52.878;6.168;2024-01-30T03:31:27;25.45;;;17.13;;
59147;SDS011;44930;52.878;6.168;2024-01-30T03:33:53;19.83;;;15.95;;
59147;SDS011;44930;52.878;6.168;2024-01-30T03:36:18;22.73;;;16.92;;
59147;SDS011;44930;52.878;6.168;2024-01-30T03:38:44;21.40;;;16.30;;
59147;SDS011;44930;52.878;6.168;2024-01-30T03:41:10;24.30;;;17.85;;
59147;SDS011;44930;52.878;6.168;2024-01-30T03:43:36;26.35;;;17.15;;
59147;SDS011;44930;52.878;6.168;2024-01-30T03:46:02;20.60;;;15.75;;
59147;SDS011;44930;52.878;6.168;2024-01-30T03:48:28;23.10;;;15.65;;
59147;SDS011;44930;52.878;6.168;2024-01-30T03:50:54;22.48;;;16.40;;
59147;SDS011;44930;52.878;6.168;2024-01-30T03:53:21;20.95;;;14.60;;
59147;SDS011;44930;52.878;6.168;2024-01-30T03:55:47;21.92;;;15.90;;
59147;SDS011;44930;52.878;6.168;2024-01-30T03:58:13;22.88;;;15.20;;
59147;SDS011;44930;52.878;6.168;2024-01-30T04:00:38;20.95;;;15.48;;
59147;SDS011;44930;52.878;6.168;2024-01-30T04:03:04;18.05;;;14.30;;
59147;SDS011;44930;52.878;6.168;2024-01-30T04:05:30;22.67;;;14.70;;
59147;SDS011;44930;52.878;6.168;2024-01-30T04:07:55;21.17;;;14.98;;
59147;SDS011;44930;52.878;6.168;2024-01-30T04:10:21;22.25;;;14.68;;
59147;SDS011;44930;52.878;6.168;2024-01-30T04:12:47;18.27;;;14.43;;
59147;SDS011;44930;52.878;6.168;2024-01-30T04:15:13;18.25;;;13.73;;
59147;SDS011;44930;52.878;6.168;2024-01-30T04:17:39;17.15;;;14.00;;
59147;SDS011;44930;52.878;6.168;2024-01-30T04:20:05;18.23;;;13.00;;
59147;SDS011;44930;52.878;6.168;2024-01-30T04:22:31;20.63;;;13.88;;
59147;SDS011;44930;52.878;6.168;2024-01-30T04:24:57;21.75;;;14.38;;
59147;SDS011;44930;52.878;6.168;2024-01-30T04:27:23;20.58;;;14.75;;
59147;SDS011;44930;52.878;6.168;2024-01-30T04:29:48;21.05;;;14.27;;
59147;SDS011;44930;52.878;6.168;2024-01-30T04:32:14;21.15;;;13.50;;
59147;SDS011;44930;52.878;6.168;2024-01-30T04:34:40;21.58;;;13.75;;
59147;SDS011;44930;52.878;6.168;2024-01-30T04:37:06;23.92;;;13.60;;
59147;SDS011;44930;52.878;6.168;2024-01-30T04:39:32;17.75;;;13.98;;
59147;SDS011;44930;52.878;6.168;2024-01-30T04:41:58;17.42;;;13.48;;
59147;SDS011;44930;52.878;6.168;2024-01-30T04:44:24;20.98;;;14.02;;
59147;SDS011;44930;52.878;6.168;2024-01-30T04:46:50;16.92;;;13.27;;
59147;SDS011;44930;52.878;6.168;2024-01-30T04:49:15;17.02;;;13.98;;
59147;SDS011;44930;52.878;6.168;2024-01-30T04:51:41;20.95;;;12.88;;
59147;SDS011;44930;52.878;6.168;2024-01-30T04:54:07;18.38;;;13.38;;
59147;SDS011;44930;52.878;6.168;2024-01-30T04:56:33;18.63;;;12.50;;
59147;SDS011;44930;52.878;6.168;2024-01-30T04:59:02;20.23;;;13.80;;
59147;SDS011;44930;52.878;6.168;2024-01-30T05:01:28;18.40;;;12.82;;
59147;SDS011;44930;52.878;6.168;2024-01-30T05:03:54;18.50;;;13.80;;
59147;SDS011;44930;52.878;6.168;2024-01-30T05:06:26;15.75;;;12.70;;
59147;SDS011;44930;52.878;6.168;2024-01-30T05:08:51;18.15;;;14.05;;
59147;SDS011;44930;52.878;6.168;2024-01-30T05:11:17;20.55;;;12.45;;
59147;SDS011;44930;52.878;6.168;2024-01-30T05:13:43;19.00;;;13.65;;
59147;SDS011;44930;52.878;6.168;2024-01-30T05:16:09;18.80;;;12.63;;
59147;SDS011;44930;52.878;6.168;2024-01-30T05:18:34;16.67;;;12.55;;
59147;SDS011;44930;52.878;6.168;2024-01-30T05:21:00;16.75;;;12.45;;
59147;SDS011;44930;52.878;6.168;2024-01-30T05:23:27;19.63;;;13.75;;
59147;SDS011;44930;52.878;6.168;2024-01-30T05:25:52;19.65;;;12.63;;
59147;SDS011;44930;52.878;6.168;2024-01-30T05:28:18;15.70;;;12.60;;
59147;SDS011;44930;52.878;6.168;2024-01-30T05:30:44;20.33;;;13.40;;
59147;SDS011;44930;52.878;6.168;2024-01-30T05:33:09;20.35;;;13.93;;
59147;SDS011;44930;52.878;6.168;2024-01-30T05:35:37;18.58;;;12.70;;
59147;SDS011;44930;52.878;6.168;2024-01-30T05:38:03;18.63;;;12.73;;
59147;SDS011;44930;52.878;6.168;2024-01-30T05:40:29;18.27;;;13.25;;
59147;SDS011;44930;52.878;6.168;2024-01-30T05:42:55;17.23;;;12.77;;
59147;SDS011;44930;52.878;6.168;2024-01-30T05:45:23;16.48;;;11.73;;
59147;SDS011;44930;52.878;6.168;2024-01-30T05:47:49;15.57;;;12.90;;
59147;SDS011;44930;52.878;6.168;2024-01-30T05:50:14;18.35;;;12.60;;
59147;SDS011;44930;52.878;6.168;2024-01-30T05:52:40;15.15;;;12.13;;
59147;SDS011;44930;52.878;6.168;2024-01-30T05:55:05;17.23;;;12.77;;
59147;SDS011;44930;52.878;6.168;2024-01-30T05:57:31;17.17;;;12.35;;
59147;SDS011;44930;52.878;6.168;2024-01-30T05:59:57;21.17;;;13.55;;
59147;SDS011;44930;52.878;6.168;2024-01-30T06:02:23;16.35;;;11.77;;
59147;SDS011;44930;52.878;6.168;2024-01-30T06:04:48;17.95;;;12.68;;
59147;SDS011;44930;52.878;6.168;2024-01-30T06:07:14;15.40;;;12.23;;
59147;SDS011;44930;52.878;6.168;2024-01-30T06:09:40;16.15;;;12.13;;
59147;SDS011;44930;52.878;6.168;2024-01-30T06:12:06;20.95;;;12.27;;
59147;SDS011;44930;52.878;6.168;2024-01-30T06:14:32;17.25;;;11.90;;
59147;SDS011;44930;52.878;6.168;2024-01-30T06:16:58;14.93;;;11.15;;
59147;SDS011;44930;52.878;6.168;2024-01-30T06:19:24;18.95;;;12.13;;
59147;SDS011;44930;52.878;6.168;2024-01-30T06:21:50;20.17;;;13.25;;
59147;SDS011;44930;52.878;6.168;2024-01-30T06:24:16;17.77;;;12.13;;
59147;SDS011;44930;52.878;6.168;2024-01-30T06:26:42;14.50;;;12.20;;
59147;SDS011;44930;52.878;6.168;2024-01-30T06:29:08;16.23;;;11.77;;
59147;SDS011;44930;52.878;6.168;2024-01-30T06:31:39;21.60;;;12.10;;
59147;SDS011;44930;52.878;6.168;2024-01-30T06:34:05;16.17;;;12.32;;
59147;SDS011;44930;52.878;6.168;2024-01-30T06:36:31;17.58;;;12.32;;
59147;SDS011;44930;52.878;6.168;2024-01-30T06:38:56;16.98;;;11.80;;
59147;SDS011;44930;52.878;6.168;2024-01-30T06:41:22;14.88;;;11.38;;
59147;SDS011;44930;52.878;6.168;2024-01-30T06:43:47;15.05;;;11.48;;
59147;SDS011;44930;52.878;6.168;2024-01-30T06:46:13;16.15;;;11.95;;
59147;SDS011;44930;52.878;6.168;2024-01-30T06:48:39;15.27;;;11.40;;
59147;SDS011;44930;52.878;6.168;2024-01-30T06:51:05;19.60;;;12.77;;
59147;SDS011;44930;52.878;6.168;2024-01-30T06:53:31;13.90;;;11.63;;
59147;SDS011;44930;52.878;6.168;2024-01-30T06:55:57;16.30;;;12.23;;
59147;SDS011;44930;52.878;6.168;2024-01-30T06:58:23;20.55;;;12.55;;
59147;SDS011;44930;52.878;6.168;2024-01-30T07:00:49;16.27;;;11.45;;
59147;SDS011;44930;52.878;6.168;2024-01-30T07:03:15;16.98;;;11.77;;
59147;SDS011;44930;52.878;6.168;2024-01-30T07:05:41;16.33;;;12.85;;
59147;SDS011;44930;52.878;6.168;2024-01-30T07:08:06;16.77;;;12.50;;
59147;SDS011;44930;52.878;6.168;2024-01-30T07:10:32;16.98;;;12.05;;
59147;SDS011;44930;52.878;6.168;2024-01-30T07:12:58;16.63;;;12.10;;
59147;SDS011;44930;52.878;6.168;2024-01-30T07:15:24;16.63;;;12.35;;
59147;SDS011;44930;52.878;6.168;2024-01-30T07:17:50;17.02;;;13.60;;
59147;SDS011;44930;52.878;6.168;2024-01-30T07:20:16;16.98;;;11.63;;
59147;SDS011;44930;52.878;6.168;2024-01-30T07:22:44;19.40;;;11.80;;
59147;SDS011;44930;52.878;6.168;2024-01-30T07:25:10;17.58;;;11.98;;
59147;SDS011;44930;52.878;6.168;2024-01-30T07:27:36;16.45;;;11.73;;
59147;SDS011;44930;52.878;6.168;2024-01-30T07:30:01;16.08;;;11.68;;
59147;SDS011;44930;52.878;6.168;2024-01-30T07:32:27;16.75;;;12.02;;
59147;SDS011;44930;52.878;6.168;2024-01-30T07:34:53;15.52;;;12.50;;
59147;SDS011;44930;52.878;6.168;2024-01-30T07:37:19;18.35;;;11.93;;
59147;SDS011;44930;52.878;6.168;2024-01-30T07:39:45;17.27;;;12.65;;
59147;SDS011;44930;52.878;6.168;2024-01-30T07:42:12;15.02;;;11.98;;
59147;SDS011;44930;52.878;6.168;2024-01-30T07:44:38;18.45;;;12.30;;
59147;SDS011;44930;52.878;6.168;2024-01-30T07:47:04;19.23;;;12.13;;
59147;SDS011;44930;52.878;6.168;2024-01-30T07:49:30;13.73;;;11.18;;
59147;SDS011;44930;52.878;6.168;2024-01-30T07:51:59;16.88;;;11.98;;
59147;SDS011;44930;52.878;6.168;2024-01-30T07:54:25;16.60;;;11.63;;
59147;SDS011;44930;52.878;6.168;2024-01-30T07:56:50;16.48;;;11.15;;
59147;SDS011;44930;52.878;6.168;2024-01-30T07:59:16;19.45;;;11.43;;
59147;SDS011;44930;52.878;6.168;2024-01-30T08:01:42;16.27;;;11.88;;
59147;SDS011;44930;52.878;6.168;2024-01-30T08:04:08;18.33;;;11.88;;
59147;SDS011;44930;52.878;6.168;2024-01-30T08:06:34;16.67;;;12.18;;
59147;SDS011;44930;52.878;6.168;2024-01-30T08:08:59;17.92;;;12.43;;
59147;SDS011;44930;52.878;6.168;2024-01-30T08:11:25;15.95;;;11.88;;
59147;SDS011;44930;52.878;6.168;2024-01-30T08:13:52;14.80;;;12.00;;
59147;SDS011;44930;52.878;6.168;2024-01-30T08:16:18;17.77;;;12.07;;
59147;SDS011;44930;52.878;6.168;2024-01-30T08:18:44;15.65;;;11.07;;
59147;SDS011;44930;52.878;6.168;2024-01-30T08:21:09;16.17;;;11.30;;
59147;SDS011;44930;52.878;6.168;2024-01-30T08:23:35;16.83;;;11.10;;
59147;SDS011;44930;52.878;6.168;2024-01-30T08:26:03;15.60;;;11.52;;
59147;SDS011;44930;52.878;6.168;2024-01-30T08:28:29;16.23;;;11.95;;
59147;SDS011;44930;52.878;6.168;2024-01-30T08:30:55;16.33;;;11.75;;
59147;SDS011;44930;52.878;6.168;2024-01-30T08:33:21;19.10;;;12.30;;
59147;SDS011;44930;52.878;6.168;2024-01-30T08:35:46;18.63;;;11.60;;
59147;SDS011;44930;52.878;6.168;2024-01-30T08:38:12;15.98;;;11.55;;
59147;SDS011;44930;52.878;6.168;2024-01-30T08:40:38;15.63;;;11.10;;
59147;SDS011;44930;52.878;6.168;2024-01-30T08:43:04;14.88;;;11.10;;
59147;SDS011;44930;52.878;6.168;2024-01-30T08:45:30;16.48;;;12.15;;
59147;SDS011;44930;52.878;6.168;2024-01-30T08:47:55;15.18;;;11.45;;
59147;SDS011;44930;52.878;6.168;2024-01-30T08:50:21;18.83;;;11.23;;
59147;SDS011;44930;52.878;6.168;2024-01-30T08:52:47;14.27;;;10.75;;
59147;SDS011;44930;52.878;6.168;2024-01-30T08:55:13;15.60;;;11.95;;
59147;SDS011;44930;52.878;6.168;2024-01-30T08:57:38;14.88;;;12.38;;
59147;SDS011;44930;52.878;6.168;2024-01-30T09:00:04;15.65;;;11.40;;
59147;SDS011;44930;52.878;6.168;2024-01-30T09:02:32;16.30;;;11.65;;
59147;SDS011;44930;52.878;6.168;2024-01-30T09:04:58;17.10;;;12.25;;
59147;SDS011;44930;52.878;6.168;2024-01-30T09:07:24;15.70;;;11.70;;
59147;SDS011;44930;52.878;6.168;2024-01-30T09:09:50;23.75;;;13.35;;
59147;SDS011;44930;52.878;6.168;2024-01-30T09:12:15;18.42;;;11.40;;
59147;SDS011;44930;52.878;6.168;2024-01-30T09:14:41;16.95;;;11.85;;
59147;SDS011;44930;52.878;6.168;2024-01-30T09:17:07;16.50;;;12.20;;
59147;SDS011;44930;52.878;6.168;2024-01-30T09:19:33;19.13;;;11.10;;
59147;SDS011;44930;52.878;6.168;2024-01-30T09:21:59;18.48;;;11.73;;
59147;SDS011;44930;52.878;6.168;2024-01-30T09:24:25;19.33;;;11.20;;
59147;SDS011;44930;52.878;6.168;2024-01-30T09:26:51;15.85;;;11.32;;
59147;SDS011;44930;52.878;6.168;2024-01-30T09:29:17;18.60;;;11.00;;
59147;SDS011;44930;52.878;6.168;2024-01-30T09:31:43;16.70;;;11.80;;
59147;SDS011;44930;52.878;6.168;2024-01-30T09:34:10;18.20;;;11.23;;
59147;SDS011;44930;52.878;6.168;2024-01-30T09:36:35;19.58;;;11.65;;
59147;SDS011;44930;52.878;6.168;2024-01-30T09:39:01;17.23;;;10.73;;
59147;SDS011;44930;52.878;6.168;2024-01-30T09:41:28;14.90;;;11.23;;
59147;SDS011;44930;52.878;6.168;2024-01-30T09:43:56;18.42;;;11.20;;
59147;SDS011;44930;52.878;6.168;2024-01-30T09:46:23;17.85;;;11.65;;
59147;SDS011;44930;52.878;6.168;2024-01-30T09:48:55;13.98;;;10.50;;
59147;SDS011;44930;52.878;6.168;2024-01-30T09:51:22;16.83;;;11.52;;
59147;SDS011;44930;52.878;6.168;2024-01-30T09:53:49;17.35;;;11.02;;
59147;SDS011;44930;52.878;6.168;2024-01-30T09:56:15;18.23;;;11.90;;
59147;SDS011;44930;52.878;6.168;2024-01-30T09:58:41;13.85;;;11.40;;
59147;SDS011;44930;52.878;6.168;2024-01-30T10:01:07;13.27;;;10.52;;
59147;SDS011;44930;52.878;6.168;2024-01-30T10:03:34;18.40;;;11.02;;
59147;SDS011;44930;52.878;6.168;2024-01-30T10:05:59;16.48;;;10.48;;
59147;SDS011;44930;52.878;6.168;2024-01-30T10:08:26;19.27;;;11.15;;
59147;SDS011;44930;52.878;6.168;2024-01-30T10:10:52;16.90;;;10.88;;
59147;SDS011;44930;52.878;6.168;2024-01-30T10:13:17;16.88;;;10.90;;
59147;SDS011;44930;52.878;6.168;2024-01-30T10:15:44;17.85;;;11.40;;
59147;SDS011;44930;52.878;6.168;2024-01-30T10:18:10;22.55;;;10.63;;
59147;SDS011;44930;52.878;6.168;2024-01-30T10:20:36;15.38;;;11.13;;
59147;SDS011;44930;52.878;6.168;2024-01-30T10:23:02;21.02;;;11.30;;
59147;SDS011;44930;52.878;6.168;2024-01-30T10:25:28;14.60;;;10.45;;
59147;SDS011;44930;52.878;6.168;2024-01-30T10:27:55;20.33;;;11.13;;
59147;SDS011;44930;52.878;6.168;2024-01-30T10:30:21;18.23;;;11.77;;
59147;SDS011;44930;52.878;6.168;2024-01-30T10:32:47;23.15;;;13.05;;
59147;SDS011;44930;52.878;6.168;2024-01-30T10:35:13;13.95;;;10.82;;
59147;SDS011;44930;52.878;6.168;2024-01-30T10:37:39;19.50;;;11.18;;
59147;SDS011;44930;52.878;6.168;2024-01-30T10:40:05;19.20;;;11.52;;
59147;SDS011;44930;52.878;6.168;2024-01-30T10:42:33;19.80;;;11.88;;
59147;SDS011;44930;52.878;6.168;2024-01-30T10:45:06;16.40;;;10.80;;
59147;SDS011;44930;52.878;6.168;2024-01-30T10:47:52;23.13;;;12.48;;
59147;SDS011;44930;52.878;6.168;2024-01-30T10:50:21;15.45;;;9.27;;
59147;SDS011;44930;52.878;6.168;2024-01-30T10:52:49;22.65;;;12.48;;
59147;SDS011;44930;52.878;6.168;2024-01-30T10:55:15;23.77;;;13.80;;
59147;SDS011;44930;52.878;6.168;2024-01-30T10:57:42;18.83;;;13.60;;
59147;SDS011;44930;52.878;6.168;2024-01-30T11:00:08;20.02;;;12.77;;
59147;SDS011;44930;52.878;6.168;2024-01-30T11:02:41;25.27;;;14.43;;
59147;SDS011;44930;52.878;6.168;2024-01-30T11:05:08;24.08;;;14.65;;
59147;SDS011;44930;52.878;6.168;2024-01-30T11:07:34;23.08;;;15.02;;
59147;SDS011;44930;52.878;6.168;2024-01-30T11:10:01;24.85;;;14.63;;
59147;SDS011;44930;52.878;6.168;2024-01-30T11:12:32;24.50;;;13.43;;
59147;SDS011;44930;52.878;6.168;2024-01-30T11:15:05;24.85;;;11.75;;
59147;SDS011;44930;52.878;6.168;2024-01-30T11:20:31;19.73;;;8.73;;
59147;SDS011;44930;52.878;6.168;2024-01-30T11:22:56;19.48;;;10.35;;
59147;SDS011;44930;52.878;6.168;2024-01-30T11:25:23;17.38;;;8.57;;
59147;SDS011;44930;52.878;6.168;2024-01-30T11:27:49;26.45;;;9.88;;
59147;SDS011;44930;52.878;6.168;2024-01-30T11:30:25;17.20;;;6.82;;
59147;SDS011;44930;52.878;6.168;2024-01-30T11:35:56;19.38;;;6.97;;
59147;SDS011;44930;52.878;6.168;2024-01-30T11:38:23;11.35;;;5.75;;
59147;SDS011;44930;52.878;6.168;2024-01-30T11:40:51;10.43;;;4.68;;
59147;SDS011;44930;52.878;6.168;2024-01-30T11:43:17;11.77;;;5.50;;
59147;SDS011;44930;52.878;6.168;2024-01-30T11:45:44;17.45;;;5.57;;
59147;SDS011;44930;52.878;6.168;2024-01-30T11:48:11;14.18;;;4.55;;
59147;SDS011;44930;52.878;6.168;2024-01-30T11:50:37;14.77;;;4.50;;
59147;SDS011;44930;52.878;6.168;2024-01-30T11:53:04;12.02;;;4.47;;
59147;SDS011;44930;52.878;6.168;2024-01-30T11:55:30;9.85;;;3.05;;
59147;SDS011;44930;52.878;6.168;2024-01-30T11:57:57;9.02;;;2.97;;
59147;SDS011;44930;52.878;6.168;2024-01-30T12:00:23;11.07;;;3.28;;
59147;SDS011;44930;52.878;6.168;2024-01-30T12:02:49;11.30;;;2.75;;
59147;SDS011;44930;52.878;6.168;2024-01-30T12:05:15;6.57;;;2.88;;
59147;SDS011;44930;52.878;6.168;2024-01-30T12:07:45;9.27;;;3.03;;
59147;SDS011;44930;52.878;6.168;2024-01-30T12:10:12;14.32;;;3.47;;
59147;SDS011;44930;52.878;6.168;2024-01-30T12:12:39;4.60;;;2.10;;
59147;SDS011;44930;52.878;6.168;2024-01-30T12:15:06;10.40;;;3.33;;
59147;SDS011;44930;52.878;6.168;2024-01-30T12:17:33;8.65;;;1.98;;
59147;SDS011;44930;52.878;6.168;2024-01-30T12:20:05;8.38;;;2.80;;
59147;SDS011;44930;52.878;6.168;2024-01-30T12:22:39;7.93;;;2.20;;
59147;SDS011;44930;52.878;6.168;2024-01-30T12:25:08;2.60;;;0.95;;
59147;SDS011;44930;52.878;6.168;2024-01-30T12:27:35;6.07;;;1.20;;
59147;SDS011;44930;52.878;6.168;2024-01-30T12:30:08;3.58;;;0.70;;
59147;SDS011;44930;52.878;6.168;2024-01-30T12:32:35;6.10;;;0.88;;
59147;SDS011;44930;52.878;6.168;2024-01-30T12:35:01;3.42;;;1.10;;
59147;SDS011;44930;52.878;6.168;2024-01-30T12:37:27;4.40;;;1.50;;
59147;SDS011;44930;52.878;6.168;2024-01-30T12:39:54;6.70;;;1.38;;
59147;SDS011;44930;52.878;6.168;2024-01-30T12:42:20;5.18;;;0.93;;
59147;SDS011;44930;52.878;6.168;2024-01-30T12:44:47;6.32;;;1.65;;
59147;SDS011;44930;52.878;6.168;2024-01-30T12:47:13;3.67;;;1.33;;
59147;SDS011;44930;52.878;6.168;2024-01-30T12:49:41;2.50;;;0.85;;
59147;SDS011;44930;52.878;6.168;2024-01-30T12:52:08;5.43;;;1.23;;
59147;SDS011;44930;52.878;6.168;2024-01-30T12:54:34;3.47;;;2.25;;
59147;SDS011;44930;52.878;6.168;2024-01-30T12:57:00;4.00;;;1.27;;
59147;SDS011;44930;52.878;6.168;2024-01-30T12:59:26;4.25;;;1.30;;
59147;SDS011;44930;52.878;6.168;2024-01-30T13:01:51;3.63;;;1.35;;
59147;SDS011;44930;52.878;6.168;2024-01-30T13:04:17;3.78;;;1.42;;
59147;SDS011;44930;52.878;6.168;2024-01-30T13:06:43;3.55;;;1.27;;
59147;SDS011;44930;52.878;6.168;2024-01-30T13:09:09;4.07;;;1.52;;
59147;SDS011;44930;52.878;6.168;2024-01-30T13:11:34;4.53;;;1.70;;
59147;SDS011;44930;52.878;6.168;2024-01-30T13:14:00;4.38;;;1.63;;
59147;SDS011;44930;52.878;6.168;2024-01-30T13:16:26;4.97;;;1.90;;
59147;SDS011;44930;52.878;6.168;2024-01-30T13:18:52;4.70;;;1.60;;
59147;SDS011;44930;52.878;6.168;2024-01-30T13:21:19;4.47;;;1.40;;
59147;SDS011;44930;52.878;6.168;2024-01-30T13:23:44;6.00;;;1.60;;
59147;SDS011;44930;52.878;6.168;2024-01-30T13:26:10;4.07;;;1.42;;
59147;SDS011;44930;52.878;6.168;2024-01-30T13:28:37;5.97;;;1.40;;
59147;SDS011;44930;52.878;6.168;2024-01-30T13:31:02;4.97;;;1.25;;
59147;SDS011;44930;52.878;6.168;2024-01-30T13:33:28;3.58;;;1.17;;
59147;SDS011;44930;52.878;6.168;2024-01-30T13:35:54;3.38;;;1.17;;
59147;SDS011;44930;52.878;6.168;2024-01-30T13:38:19;6.55;;;1.80;;
59147;SDS011;44930;52.878;6.168;2024-01-30T13:40:45;3.63;;;1.50;;
59147;SDS011;44930;52.878;6.168;2024-01-30T13:43:11;3.08;;;1.48;;
59147;SDS011;44930;52.878;6.168;2024-01-30T13:45:37;7.95;;;2.15;;
59147;SDS011;44930;52.878;6.168;2024-01-30T13:48:03;5.03;;;1.83;;
59147;SDS011;44930;52.878;6.168;2024-01-30T13:50:29;5.45;;;2.20;;
59147;SDS011;44930;52.878;6.168;2024-01-30T13:52:55;6.25;;;2.00;;
59147;SDS011;44930;52.878;6.168;2024-01-30T13:55:21;7.10;;;2.58;;
59147;SDS011;44930;52.878;6.168;2024-01-30T13:57:47;6.35;;;2.55;;
59147;SDS011;44930;52.878;6.168;2024-01-30T14:00:13;6.55;;;2.40;;
59147;SDS011;44930;52.878;6.168;2024-01-30T14:02:41;5.13;;;2.95;;
59147;SDS011;44930;52.878;6.168;2024-01-30T14:05:07;6.70;;;2.22;;
59147;SDS011;44930;52.878;6.168;2024-01-30T14:07:33;7.20;;;2.47;;
59147;SDS011;44930;52.878;6.168;2024-01-30T14:10:00;6.88;;;2.22;;
59147;SDS011;44930;52.878;6.168;2024-01-30T14:12:26;6.78;;;2.72;;
59147;SDS011;44930;52.878;6.168;2024-01-30T14:14:52;4.72;;;2.35;;
59147;SDS011;44930;52.878;6.168;2024-01-30T14:17:18;6.95;;;2.05;;
59147;SDS011;44930;52.878;6.168;2024-01-30T14:19:44;7.18;;;2.70;;
59147;SDS011;44930;52.878;6.168;2024-01-30T14:22:10;5.72;;;2.10;;
59147;SDS011;44930;52.878;6.168;2024-01-30T14:24:36;7.30;;;2.50;;
59147;SDS011;44930;52.878;6.168;2024-01-30T14:27:02;6.22;;;2.22;;